Nearby METAR Reports

 

KJOT - Joliet, Illinois, USA
Distance from station: SSW 3mi, 6km
Updated: Fri, 06-Dec-2019 5:35am CST
Overcast
Overcast
 Wind from N
Wind: N 10 mph , 17 km/h, Gust: 21 mph , 33 km/h
Temperature: 39°F , 4°C
Wind Chill: 32°F , 0°C
Dew Point: 36°F , 2°C
Humidity: 87%
Barometer: 30.08 inHg , 1018.6 hPa
Clouds: Overcast
Visibility: 10 miles , 16 km
Cloud details: Overcast 1700 ft
2019/12/06 11:35 KJOT 061135Z AUTO 01009G18KT 10SM OVC017 04/02 A3008 RMK AO2 T00440022
KLOT - Romeoville/Chi, Illinois, USA
Distance from station: NE 4mi, 6km
Updated: Fri, 06-Dec-2019 5:35am CST
Overcast
Overcast
 Wind from N
Wind: N 15 mph , 24 km/h, Gust: 22 mph , 35 km/h
Temperature: 37°F , 3°C
Wind Chill: 28°F , -2°C
Dew Point: 34°F , 1°C
Humidity: 87%
Barometer: 30.08 inHg , 1018.6 hPa
Clouds: Overcast
Visibility: 10 miles , 16 km
Cloud details: Overcast 1700 ft
2019/12/06 11:35 KLOT 061135Z AUTO 36013G19KT 10SM OVC017 03/01 A3008 RMK AO2 T00320006
 
KC09 - Morris-Washburn, Illinois, USA
Distance from station: SW 16mi, 26km
Updated: Fri, 06-Dec-2019 5:35am CST
Overcast
Overcast
 Wind from N
Wind: N 8 mph , 13 km/h
Temperature: 37°F , 3°C
Wind Chill: 31°F , -1°C
Dew Point: 34°F , 1°C
Humidity: 87%
Barometer: 30.08 inHg , 1018.6 hPa
Clouds: Overcast
Visibility: 10 miles , 16 km
Cloud details: Overcast 1600 ft
2019/12/06 11:35 KC09 061135Z AUTO 35007KT 10SM OVC016 03/01 A3008 RMK AO2 T00300011
KARR - Chicago/Aurora, Illinois, USA
Distance from station: NW 22mi, 35km
Updated: Fri, 06-Dec-2019 5:41am CST
Partly cloudy
Partly cloudy
 Wind from N
Wind: N 15 mph , 24 km/h, Gust: 30 mph , 48 km/h
Temperature: 36°F , 2°C
Wind Chill: 27°F , -3°C
Dew Point: 28°F , -2°C
Humidity: 75%
Barometer: 30.10 inHg , 1019.3 hPa
Clouds: Partly cloudy
Visibility: 8 miles , 13 km
Cloud details: Partly cloudy 2000 ft
2019/12/06 11:41 KARR 061141Z AUTO 35013G26KT 8SM SCT020 02/M02 A3010 RMK AO2 PK WND 35027/1058 T00171022
 
KDPA - Chicago/Dupage, Illinois, USA
Distance from station: NNW 25mi, 40km
Updated: Fri, 06-Dec-2019 5:43am CST
Partly cloudy
Partly cloudy
 Wind from N
Wind: N 14 mph , 22 km/h
Temperature: 34°F , 1°C
Wind Chill: 25°F , -4°C
Dew Point: 28°F , -2°C
Humidity: 81%
Barometer: 30.09 inHg , 1019 hPa
Clouds: Partly cloudy
Visibility: 10 miles , 16 km
Cloud details: Partly cloudy 2100 ft
2019/12/06 11:43 KDPA 061143Z 36012KT 10SM SCT021 01/M02 A3009 RMK AO2 PK WND 35027/1057 T00111022 $
KMDW - Chicago, Illinois, USA
Distance from station: NE 26mi, 42km
Updated: Fri, 06-Dec-2019 4:53am CST
Overcast
Overcast
 Wind from N
Wind: N 18 mph , 30 km/h, Gust: 28 mph , 44 km/h
Temperature: 39°F , 4°C
Wind Chill: 30°F , -1°C
Dew Point: 34°F , 1°C
Humidity: 81%
Barometer: 30.05 inHg , 1017.6 hPa
Clouds: Overcast
Visibility: 9 miles , 14 km
Cloud details: Partly cloudy 1800 ft
Overcast 2100 ft
2019/12/06 10:53 KMDW 061053Z 35016G24KT 9SM SCT018 OVC021 04/01 A3005 RMK AO2 SLP180 T00440006
 
KORD - Chicago O'hare, Illinois, USA
Distance from station: NNE 31mi, 50km
Updated: Fri, 06-Dec-2019 4:51am CST
Overcast
Overcast
 Wind from NNW
Wind: NNW 17 mph , 28 km/h, Gust: 28 mph , 44 km/h
Temperature: 37°F , 3°C
Wind Chill: 27°F , -3°C
Dew Point: 34°F , 1°C
Humidity: 87%
Barometer: 30.05 inHg , 1017.6 hPa
Clouds: Overcast
Visibility: 10 miles , 16 km
Cloud details: Overcast 1800 ft
2019/12/06 10:51 KORD 061051Z 34015G24KT 10SM OVC018 03/01 A3005 RMK AO2 SLP179 T00330006
KIGQ - Chicago/Lansing, Illinois, USA
Distance from station: E 32mi, 52km
Updated: Fri, 06-Dec-2019 5:35am CST
Overcast
Overcast
 Wind from N
Wind: N 15 mph , 24 km/h, Gust: 24 mph , 39 km/h
Temperature: 39°F , 4°C
Wind Chill: 31°F , -1°C
Dew Point: 36°F , 2°C
Humidity: 87%
Barometer: 30.06 inHg , 1017.9 hPa
Clouds: Overcast
Visibility: 10 miles , 16 km
Cloud details: Partly cloudy 1500 ft
Overcast 2300 ft
2019/12/06 11:35 KIGQ 061135Z AUTO 01013G21KT 10SM SCT015 OVC023 04/02 A3006 RMK AO2 T00420015
 
KDKB - De Kalb, Illinois, USA
Distance from station: NW 38mi, 61km
Updated: Fri, 06-Dec-2019 5:35am CST
Partly cloudy
Partly cloudy
 Wind from N
Wind: N 13 mph , 20 km/h, Gust: 22 mph , 35 km/h
Temperature: 32°F , 0°C
Wind Chill: 22°F , -6°C
Dew Point: 28°F , -2°C
Humidity: 87%
Barometer: 30.11 inHg , 1019.6 hPa
Clouds: Partly cloudy
Visibility: 10 miles , 16 km
Cloud details: Partly cloudy 1800 ft
2019/12/06 11:35 KDKB 061135Z AUTO 36011G19KT 10SM SCT018 00/M02 A3011 RMK AO2 T00021020
KIKK - Kankakee, Illinois, USA
Distance from station: SSE 38mi, 61km
Updated: Fri, 06-Dec-2019 5:35am CST
Clear
Clear
 Wind from N
Wind: N 12 mph , 19 km/h
Temperature: 37°F , 3°C
Wind Chill: 29°F , -2°C
Dew Point: 34°F , 1°C
Humidity: 87%
Barometer: 30.06 inHg , 1017.9 hPa
Clouds: Clear
Visibility: 10 miles , 16 km
2019/12/06 11:35 KIKK 061135Z AUTO 35010KT 10SM CLR 03/01 A3006 RMK AO2 T00320011
 
KGYY - Gary Regional, Indiana, USA
Distance from station: E 38mi, 62km
Updated: Fri, 06-Dec-2019 4:45am CST
Mostly cloudy
Mostly cloudy
 Wind from NNW
Wind: NNW 14 mph , 22 km/h, Gust: 29 mph , 46 km/h
Temperature: 43°F , 6°C
Wind Chill: 36°F , 2°C
Dew Point: 34°F , 1°C
Humidity: 71%
Barometer: 30.04 inHg , 1017.3 hPa
Clouds: Mostly cloudy
Visibility: 10 miles , 16 km
Cloud details: Partly cloudy 1600 ft
Mostly cloudy 2500 ft
2019/12/06 10:45 KGYY 061045Z 33012G25KT 10SM SCT016 BKN025 06/01 A3004
KPWK - Palwaukee, Illinois, USA
Distance from station: NNE 40mi, 65km
Updated: Fri, 06-Dec-2019 5:39am CST
Few Clouds
Few Clouds
 Wind from N
Wind: N 15 mph , 24 km/h, Gust: 22 mph , 35 km/h
Temperature: 36°F , 2°C
Wind Chill: 27°F , -3°C
Dew Point: 27°F , -3°C
Humidity: 70%
Barometer: 30.12 inHg , 1020 hPa
Clouds: Few Clouds
Visibility: 10 miles , 16 km
Cloud details: Few Clouds 2500 ft
2019/12/06 11:39 KPWK 061139Z 35013G19KT 10SM FEW025 02/M03 A3012 RMK AO2 PRESRR T00221033